Autres sites météorologiques:

MétéotemplateWebsite of another weatherstation

Saratoga.org


Vous trouverez notre info météo également à:

European Weather Network

WeatherCloud

Weather Underground

French Weather Network

AWEKAS

HAMweather, WeatherForYou, PWS Weather



Crues Valable du: 17-01-2020 16:00 Au: 18-01-2020 16:00 Avertissement pour: Crues Niveau: Jaune info button
français:
Des phénomènes habituels dans la région mais occasionnellement et localement dangereux sont prévus , (ex. mistral, orage d’été, montée des eaux, fortes vagues submergeant le littoral)

Soyez attentifs; si vous pratiquez des activités sensibles au risque météorologique ou à proximité d'un rivage ou d'un cours d'eau; tenez-vous au courant de l’évolution de la situation.

Rapports METAR proches

   
EHVK - Volkel Rnlafb, Netherlands
Distance de la station :: SO 18 km
Mise à jour: 17-01-2020 16:14
Nuageux  
Nuageux  
   Vent: SSO 20.4 km/h
Vent: SSO 20.4 km/h
Température: 9°C
éolien: 6°C
Point de rosée: 8°C
Hygromètrie: 94%
Pression: 1013 hPa
Nuageux: Nuageux
visibilité: More than 10 km
Détails des nuages: Peu nuageux 1600 ft,
Partiellement nuageux 2100 ft,
Nuageux 4700 ft
EHVK 171514Z AUTO 21011KT 170V250 9999 FEW016 SCT021 BKN047 09/08 Q1013 WHT
EDLV - Niederrhein, Germany
Distance de la station :: SE 25 km
Mise à jour: 17-01-2020 15:50
Nuageux  
Nuageux  
   Vent: SSO 16.7 km/h
Vent: SSO 16.7 km/h
Température: 9°C
éolien: 7°C
Point de rosée: 8°C
Hygromètrie: 94%
Pression: 1013 hPa
Nuageux: Nuageux
visibilité: More than 10 km
Détails des nuages: Nuageux 1100 ft
EDLV 171450Z 21009KT 9999 BKN011 09/08 Q1013
EHDL - Deelen Rnlafb, Netherlands
Distance de la station :: N 35 km
Mise à jour: 17-01-2020 15:55
Nuageux  
Nuageux  
   Vent: SSO 18.5 km/h
Vent: SSO 18.5 km/h
Température: 9°C
éolien: 6°C
Point de rosée: 8°C
Hygromètrie: 94%
Pression: 1012 hPa
Nuageux: Nuageux
visibilité: More than 10 km
Détails des nuages: Peu nuageux 900 ft,
Partiellement nuageux 1100 ft,
Nuageux 2100 ft
EHDL 171455Z AUTO 20010KT 150V250 9999 FEW009 SCT011 BKN021 09/08 Q1012 GRN
EHEH - Eindhoven Rnlafb, Netherlands
Distance de la station :: SO 48 km
Mise à jour: 17-01-2020 15:55
Couvert  
Couvert  
   Vent: SSO 16.7 km/h
Vent: SSO 16.7 km/h
Température: 10°C
éolien: 8°C
Point de rosée: 8°C
Hygromètrie: 88%
Pression: 1013 hPa
Nuageux: Couvert
visibilité: More than 10 km
Détails des nuages: Partiellement nuageux 3700 ft,
Couvert 4400 ft
EHEH 171455Z AUTO 21009KT 9999 SCT037 OVC044 10/08 Q1013 BLU 20012KT 9999 SCT015 SCT040 BKN045
EHGR - Gilze-Rijen Rnla, Netherlands
Distance de la station :: OSO 70 km
Mise à jour: 17-01-2020 15:55
Nuageux  
Nuageux  
   Vent: SO 11.1 km/h
Vent: SO 11.1 km/h
Température: 10°C
éolien: 8°C
Point de rosée: 7°C
Hygromètrie: 82%
Pression: 1013 hPa
Nuageux: Nuageux
visibilité: More than 10 km
Détails des nuages: Peu nuageux 2500 ft,
Partiellement nuageux 3000 ft,
Nuageux 4900 ft
EHGR 171455Z AUTO 23006KT 190V270 9999 FEW025 SCT030 BKN049 10/07 Q1013 BLU
EBBL - Kleine-Brogel(Ba, Belgium
Distance de la station :: SSO 71 km
Mise à jour: 17-01-2020 15:55
Nuageux  
Nuageux  
   Vent: SO 16.7 km/h
Vent: SO 16.7 km/h
Température: 10°C
éolien: 8°C
Point de rosée: 7°C
Hygromètrie: 82%
Pression: 1014 hPa
Nuageux: Nuageux
visibilité: More than 10 km
Détails des nuages: Partiellement nuageux 3000 ft,
Nuageux 8000 ft
EBBL 171455Z 22009KT 9999 SCT030 BKN080 10/07 Q1014 BLU WHT TEMPO BLU

Script d'après  Saratoga-weather.org Adapté pour le modèle par  Weerstation Leuven